Time;durP1;ratioP1;P1;durP2;ratioP2;P2;SDS_P1;SDS_P2;PMS_P1;PMS_P2;Temp;Humidity;BMP_temperature;BMP_pressure;BME280_temperature;BME280_humidity;BME280_pressure;Samples;Min_cycle;Max_cycle;Signal;HPM_P1;HPM_P2
2022/06/03 00:02:42;;;;;;;0.67;0.67;;;16.00;99.90;;;;;;5137049;27;20450;-77
2022/06/03 00:05:39;;;;;;;0.60;0.60;;;16.00;99.90;;;;;;5137192;27;20438;-77
2022/06/03 00:08:23;;;;;;;0.83;0.60;;;15.90;99.90;;;;;;5136688;27;21025;-77
2022/06/03 00:11:14;;;;;;;0.90;0.53;;;15.90;99.90;;;;;;5136709;27;20913;-76
2022/06/03 00:14:00;;;;;;;0.80;0.80;;;15.80;99.90;;;;;;5136899;27;20458;-77
2022/06/03 00:16:37;;;;;;;1.23;1.23;;;15.70;99.90;;;;;;5137361;27;20453;-76
2022/06/03 00:19:13;;;;;;;0.70;0.63;;;15.70;99.90;;;;;;5136869;27;20429;-76
2022/06/03 00:22:03;;;;;;;0.60;0.60;;;15.60;99.90;;;;;;5136863;27;20429;-77
2022/06/03 00:24:47;;;;;;;0.80;0.53;;;15.60;99.90;;;;;;5136794;27;20442;-76
2022/06/03 00:27:43;;;;;;;1.00;0.60;;;15.60;99.90;;;;;;5136617;27;20448;-77
2022/06/03 00:30:24;;;;;;;0.80;0.80;;;15.60;99.90;;;;;;5136706;27;20583;-77
2022/06/03 00:33:34;;;;;;;2.20;0.63;;;15.50;99.90;;;;;;5136251;27;20977;-77
2022/06/03 00:36:13;;;;;;;1.53;0.60;;;15.50;99.90;;;;;;5136524;27;20809;-77
2022/06/03 00:38:56;;;;;;;0.90;0.70;;;15.60;99.90;;;;;;5136193;27;20422;-77
2022/06/03 00:41:31;;;;;;;1.10;1.10;;;15.50;99.90;;;;;;5136514;27;20427;-77
2022/06/03 00:44:16;;;;;;;0.70;0.63;;;15.50;99.90;;;;;;5136361;27;20474;-76
2022/06/03 00:46:59;;;;;;;0.50;0.50;;;15.50;99.90;;;;;;5136339;27;20445;-76
2022/06/03 00:49:43;;;;;;;0.87;0.73;;;15.50;99.90;;;;;;5136219;27;20466;-76
2022/06/03 00:52:40;;;;;;;1.13;0.70;;;15.50;99.90;;;;;;5135899;27;20437;-77
2022/06/03 00:55:26;;;;;;;1.57;0.90;;;15.40;99.90;;;;;;5136177;27;20434;-77
2022/06/03 00:58:26;;;;;;;0.60;0.60;;;15.40;99.90;;;;;;5136135;27;20418;-77
2022/06/03 01:01:06;;;;;;;0.63;0.57;;;15.30;99.90;;;;;;5133094;27;20457;-77
2022/06/03 01:03:48;;;;;;;1.33;1.23;;;15.30;99.90;;;;;;5135960;27;20454;-76
2022/06/03 01:06:24;;;;;;;0.80;0.70;;;15.20;99.90;;;;;;5135696;27;20912;-77
2022/06/03 01:09:12;;;;;;;1.33;0.83;;;15.20;99.90;;;;;;5135780;27;20458;-76
2022/06/03 01:12:00;;;;;;;1.27;0.90;;;15.20;99.90;;;;;;5135879;27;20430;-76
2022/06/03 01:14:38;;;;;;;0.70;0.70;;;15.10;99.90;;;;;;5135847;27;20792;-76
2022/06/03 01:17:13;;;;;;;1.20;0.70;;;15.10;99.90;;;;;;5135786;27;20430;-77
2022/06/03 01:19:55;;;;;;;0.73;0.73;;;15.10;99.90;;;;;;5135395;27;20429;-77
2022/06/03 01:22:45;;;;;;;1.23;0.70;;;15.10;99.90;;;;;;5135581;27;20473;-77
2022/06/03 01:25:37;;;;;;;0.80;0.67;;;15.00;99.90;;;;;;5135563;27;20442;-77
2022/06/03 01:28:26;;;;;;;1.10;0.70;;;15.00;99.90;;;;;;5135409;27;20489;-77
2022/06/03 01:31:18;;;;;;;1.07;1.07;;;15.10;99.90;;;;;;5135475;27;20435;-77
2022/06/03 01:34:02;;;;;;;0.70;0.70;;;15.00;99.90;;;;;;5135003;27;20507;-77
2022/06/03 01:36:41;;;;;;;0.60;0.50;;;15.00;99.90;;;;;;5135086;27;20433;-77
2022/06/03 01:39:43;;;;;;;1.80;0.60;;;15.00;99.90;;;;;;5135014;27;20435;-77
2022/06/03 01:42:51;;;;;;;10.10;1.20;;;14.90;99.90;;;;;;5135216;27;20434;-77
2022/06/03 01:45:43;;;;;;;0.50;0.50;;;14.90;99.90;;;;;;5134868;27;20960;-77
2022/06/03 01:48:29;;;;;;;0.50;0.50;;;14.80;99.90;;;;;;5134811;27;20968;-77
2022/06/03 01:51:30;;;;;;;1.93;1.17;;;14.80;99.90;;;;;;5135132;27;20467;-77
2022/06/03 01:54:20;;;;;;;0.70;0.70;;;14.80;99.90;;;;;;5124240;27;20843;-77
2022/06/03 01:57:20;;;;;;;4.00;1.37;;;14.70;99.90;;;;;;5121394;27;20457;-77
2022/06/03 02:00:11;;;;;;;1.20;1.20;;;14.70;99.90;;;;;;5124083;27;20461;-77
2022/06/03 02:03:23;;;;;;;2.13;0.83;;;14.70;99.90;;;;;;5134565;27;20981;-77
2022/06/03 02:06:23;;;;;;;1.97;1.67;;;14.70;99.90;;;;;;5134469;27;20429;-77
2022/06/03 02:09:20;;;;;;;1.67;0.90;;;14.70;99.90;;;;;;5134377;27;20996;-77
2022/06/03 02:11:58;;;;;;;0.70;0.70;;;14.70;99.90;;;;;;5134509;27;20920;-77
2022/06/03 02:14:47;;;;;;;0.90;0.73;;;14.70;99.90;;;;;;5134746;27;20403;-77
2022/06/03 02:17:55;;;;;;;7.20;0.90;;;14.70;99.90;;;;;;5134679;27;20426;-77
2022/06/03 02:20:50;;;;;;;1.10;0.70;;;14.70;99.90;;;;;;5117009;27;20472;-76
2022/06/03 02:24:00;;;;;;;0.80;0.80;;;14.70;99.90;;;;;;5134219;27;20467;-77
2022/06/03 02:26:51;;;;;;;1.20;0.90;;;14.70;99.90;;;;;;5134216;27;20445;-77
2022/06/03 02:32:49;;;;;;;0.80;0.80;;;14.70;99.90;;;;;;5128758;27;20546;-77
2022/06/03 02:35:30;;;;;;;1.10;1.00;;;14.70;99.90;;;;;;5134003;27;20482;-77
2022/06/03 02:38:18;;;;;;;0.87;0.80;;;14.70;99.90;;;;;;5134153;27;20928;-77
2022/06/03 02:41:23;;;;;;;0.60;0.50;;;14.70;99.90;;;;;;5134110;27;20932;-77
2022/06/03 02:44:16;;;;;;;0.70;0.53;;;14.70;99.90;;;;;;5107529;27;20481;-77
2022/06/03 02:47:25;;;;;;;1.10;1.00;;;14.70;99.90;;;;;;5134048;27;20434;-77
2022/06/03 02:50:18;;;;;;;0.87;0.80;;;14.70;99.90;;;;;;5134192;27;20482;-77
2022/06/03 02:53:08;;;;;;;0.83;0.83;;;14.70;99.90;;;;;;5134179;27;20466;-77
2022/06/03 02:56:11;;;;;;;1.17;0.73;;;14.80;99.90;;;;;;5133942;27;20436;-76
2022/06/03 02:59:16;;;;;;;1.90;0.50;;;14.80;99.90;;;;;;5133919;27;20422;-77
2022/06/03 03:02:10;;;;;;;1.83;0.77;;;14.80;99.90;;;;;;5132007;27;20446;-77
2022/06/03 03:05:02;;;;;;;0.40;0.40;;;14.80;99.90;;;;;;5133926;27;20426;-77
2022/06/03 03:07:59;;;;;;;1.07;0.57;;;14.80;99.90;;;;;;5123245;27;20454;-76
2022/06/03 03:10:58;;;;;;;0.50;0.50;;;14.80;99.90;;;;;;5121156;27;20474;-77
2022/06/03 03:14:02;;;;;;;1.37;0.70;;;14.80;99.90;;;;;;5131422;27;20480;-77
2022/06/03 03:16:49;;;;;;;0.80;0.40;;;14.80;99.90;;;;;;5134895;27;20493;-77
2022/06/03 03:19:45;;;;;;;1.33;0.70;;;14.80;99.90;;;;;;5137732;27;20925;-77
2022/06/03 03:22:28;;;;;;;2.53;1.17;;;14.80;99.90;;;;;;5137938;27;20430;-77
2022/06/03 03:25:24;;;;;;;1.13;0.90;;;14.70;99.90;;;;;;5138036;27;20418;-77
2022/06/03 03:28:19;;;;;;;0.80;0.70;;;14.70;99.90;;;;;;5137882;27;20445;-77
2022/06/03 03:31:00;;;;;;;1.17;0.77;;;14.70;99.90;;;;;;5137827;27;20449;-77
2022/06/03 03:33:56;;;;;;;0.87;0.70;;;14.60;99.90;;;;;;5137468;27;20478;-76
2022/06/03 03:37:07;;;;;;;1.40;0.90;;;14.60;99.90;;;;;;5137722;27;20441;-77
2022/06/03 03:40:02;;;;;;;0.80;0.80;;;14.60;99.90;;;;;;5126762;27;20815;-77
2022/06/03 03:43:00;;;;;;;1.47;0.80;;;14.60;99.90;;;;;;5137460;27;20846;-77
2022/06/03 03:45:54;;;;;;;1.57;0.60;;;14.60;99.90;;;;;;5112448;27;20445;-76
2022/06/03 03:48:53;;;;;;;1.93;1.00;;;14.60;99.90;;;;;;5137457;27;20465;-77
2022/06/03 03:51:31;;;;;;;1.53;1.43;;;14.70;99.90;;;;;;5137544;27;20445;-76
2022/06/03 03:54:26;;;;;;;0.60;0.57;;;14.70;99.90;;;;;;5137322;27;20469;-77
2022/06/03 03:57:31;;;;;;;0.60;0.60;;;14.80;99.90;;;;;;5137369;27;20524;-77
2022/06/03 04:00:16;;;;;;;1.90;1.10;;;14.80;99.90;;;;;;5134318;27;20442;-76
2022/06/03 04:03:11;;;;;;;0.80;0.50;;;14.80;99.90;;;;;;5137185;27;20454;-77
2022/06/03 04:06:24;;;;;;;0.97;0.90;;;14.80;99.90;;;;;;5105403;27;20449;-76
2022/06/03 04:09:25;;;;;;;1.10;1.00;;;14.90;99.90;;;;;;5137049;27;20531;-77
2022/06/03 04:12:32;;;;;;;0.77;0.60;;;14.90;99.90;;;;;;5137029;27;20446;-76
2022/06/03 04:15:58;;;;;;;0.90;0.70;;;14.90;99.90;;;;;;5119566;27;20445;-77
2022/06/03 04:18:54;;;;;;;2.00;0.93;;;14.90;99.90;;;;;;5136838;27;20810;-77
2022/06/03 04:21:52;;;;;;;1.77;0.80;;;14.90;99.90;;;;;;5136891;27;20414;-76
2022/06/03 04:24:40;;;;;;;0.93;0.73;;;14.90;99.90;;;;;;5136703;27;20458;-78
2022/06/03 04:27:46;;;;;;;1.27;1.17;;;14.90;99.90;;;;;;5136447;27;20422;-78
2022/06/03 04:30:55;;;;;;;0.70;0.70;;;14.90;99.90;;;;;;5136694;27;20498;-78
2022/06/03 04:34:08;;;;;;;0.83;0.83;;;15.00;99.90;;;;;;5128584;27;20493;-78
2022/06/03 04:37:11;;;;;;;2.00;0.90;;;15.00;99.90;;;;;;5136603;27;20787;-78
2022/06/03 04:40:32;;;;;;;1.07;0.80;;;15.10;99.90;;;;;;5136549;27;20417;-78
2022/06/03 04:43:42;;;;;;;1.03;0.87;;;15.20;99.90;;;;;;5136355;27;20474;-78
2022/06/03 04:46:42;;;;;;;0.60;0.60;;;15.30;99.90;;;;;;5136390;27;20812;-78
2022/06/03 04:49:45;;;;;;;0.80;0.80;;;15.30;99.90;;;;;;5136201;27;20527;-78
2022/06/03 04:52:54;;;;;;;0.93;0.77;;;15.40;99.90;;;;;;5136239;27;20426;-78
2022/06/03 04:56:06;;;;;;;0.80;0.77;;;15.50;99.90;;;;;;5086389;27;20438;-78
2022/06/03 04:59:20;;;;;;;1.20;1.10;;;15.70;99.90;;;;;;5107419;27;20941;-78
2022/06/03 05:02:26;;;;;;;1.70;0.87;;;15.80;99.90;;;;;;5136042;27;20448;-78
2022/06/03 05:05:29;;;;;;;2.03;1.03;;;15.90;99.90;;;;;;5136047;27;20469;-78
2022/06/03 05:08:45;;;;;;;1.50;1.00;;;16.00;99.90;;;;;;5104397;27;20798;-78
2022/06/03 05:11:45;;;;;;;1.73;1.23;;;16.20;99.90;;;;;;5099662;27;20446;-78
2022/06/03 05:15:00;;;;;;;1.00;1.00;;;16.30;99.90;;;;;;5109081;27;20455;-78
2022/06/03 05:18:01;;;;;;;1.33;1.23;;;16.40;99.90;;;;;;5135424;27;20430;-78
2022/06/03 05:20:46;;;;;;;1.13;1.03;;;16.50;99.90;;;;;;5135534;27;20453;-78
2022/06/03 05:23:46;;;;;;;1.17;0.60;;;16.40;99.90;;;;;;5135518;27;20462;-78
2022/06/03 05:26:39;;;;;;;1.30;0.87;;;16.50;99.90;;;;;;5109782;27;20446;-78
2022/06/03 05:29:23;;;;;;;1.80;1.00;;;16.40;99.90;;;;;;5135160;27;20473;-78
2022/06/03 05:32:27;;;;;;;0.60;0.60;;;16.50;99.90;;;;;;5135219;27;20434;-78
2022/06/03 05:35:38;;;;;;;0.90;0.80;;;16.50;99.90;;;;;;5134891;27;20476;-78
2022/06/03 05:38:40;;;;;;;3.00;1.33;;;16.60;99.90;;;;;;5039473;28;20956;-77
2022/06/03 05:44:20;;;;;;;0.87;0.87;;;16.90;99.90;;;;;;5134954;27;20442;-77
2022/06/03 05:46:59;;;;;;;1.53;1.20;;;17.00;99.90;;;;;;5134871;27;20921;-77
2022/06/03 05:49:36;;;;;;;2.00;0.93;;;17.10;99.90;;;;;;5134791;27;20980;-77
2022/06/03 05:52:26;;;;;;;0.97;0.87;;;17.30;99.90;;;;;;5135021;27;20430;-77
2022/06/03 05:55:09;;;;;;;1.13;0.80;;;17.40;99.90;;;;;;5135054;27;20787;-77
2022/06/03 05:57:39;;;;;;;1.03;0.93;;;17.60;99.90;;;;;;5134978;27;20521;-77
2022/06/03 06:00:31;;;;;;;1.20;0.80;;;17.70;99.90;;;;;;5134732;27;20439;-77
2022/06/03 06:03:13;;;;;;;1.43;1.17;;;17.80;99.90;;;;;;5134847;27;20470;-76
2022/06/03 06:05:49;;;;;;;4.27;1.23;;;18.00;99.90;;;;;;5134577;27;20918;-77
2022/06/03 06:08:25;;;;;;;2.53;1.00;;;18.20;99.90;;;;;;5134537;27;20483;-77
2022/06/03 06:11:03;;;;;;;0.97;0.97;;;18.50;99.90;;;;;;5134450;27;20462;-77
2022/06/03 06:14:01;;;;;;;1.10;1.00;;;18.70;99.90;;;;;;5134428;27;20470;-77
2022/06/03 06:16:32;;;;;;;2.33;1.30;;;18.90;99.90;;;;;;5134673;27;20438;-77
2022/06/03 06:19:07;;;;;;;1.57;1.47;;;19.00;99.90;;;;;;5134666;27;20426;-77
2022/06/03 06:21:58;;;;;;;2.00;0.80;;;19.20;99.90;;;;;;5135317;27;20857;-77
2022/06/03 06:24:44;;;;;;;3.43;1.03;;;19.40;99.90;;;;;;5134570;27;20469;-77
2022/06/03 06:27:33;;;;;;;1.70;1.60;;;19.70;99.90;;;;;;5134530;27;20449;-77
2022/06/03 06:30:14;;;;;;;2.23;1.10;;;20.00;99.90;;;;;;5134183;27;20478;-77
2022/06/03 06:33:01;;;;;;;0.70;0.70;;;20.20;99.90;;;;;;5134488;27;20828;-77
2022/06/03 06:36:09;;;;;;;1.20;0.97;;;20.50;99.90;;;;;;5134167;27;20437;-78
2022/06/03 06:38:46;;;;;;;1.37;1.20;;;20.70;99.90;;;;;;5134478;27;20200;-77
2022/06/03 06:41:36;;;;;;;1.27;1.20;;;20.80;99.90;;;;;;5134480;27;20203;-77
2022/06/03 06:44:09;;;;;;;1.50;1.40;;;21.00;99.90;;;;;;5134434;27;20389;-77
2022/06/03 06:46:48;;;;;;;1.83;1.20;;;21.20;99.90;;;;;;5134452;27;20241;-78
2022/06/03 06:49:22;;;;;;;1.45;1.35;;;21.50;99.90;;;;;;5134555;27;20253;-81
2022/06/03 06:52:08;;;;;;;1.90;1.35;;;21.80;99.90;;;;;;5137732;27;20636;-81
2022/06/03 06:54:47;;;;;;;2.25;1.10;;;21.80;99.90;;;;;;5138369;27;20219;-81
2022/06/03 06:57:19;;;;;;;1.33;1.23;;;22.00;99.90;;;;;;5138646;27;20188;-81
2022/06/03 06:59:51;;;;;;;1.17;1.17;;;22.10;99.90;;;;;;5138611;27;20186;-81
2022/06/03 07:02:22;;;;;;;1.10;1.00;;;22.20;99.90;;;;;;5138567;27;20188;-81
2022/06/03 07:04:54;;;;;;;1.70;1.38;;;22.20;99.90;;;;;;5139975;27;20275;-82
2022/06/03 07:07:27;;;;;;;1.52;1.27;;;22.40;99.90;;;;;;5138186;27;20189;-81
2022/06/03 07:09:59;;;;;;;1.73;1.63;;;22.70;99.90;;;;;;5138184;27;20208;-81
2022/06/03 07:12:31;;;;;;;1.00;0.98;;;22.90;99.90;;;;;;5138370;27;20219;-81
2022/06/03 07:15:02;;;;;;;1.13;1.02;;;23.10;99.90;;;;;;5138287;27;20180;-81
2022/06/03 07:20:41;;;;;;;3.22;1.63;;;23.30;99.90;;;;;;5137930;27;20179;-81
2022/06/03 07:23:16;;;;;;;4.25;1.70;;;23.40;99.90;;;;;;5138009;27;20219;-81
2022/06/03 07:25:46;;;;;;;1.63;1.20;;;23.40;99.90;;;;;;5138044;27;20188;-81
2022/06/03 07:28:26;;;;;;;1.40;1.10;;;23.40;99.90;;;;;;5137896;27;20207;-82
2022/06/03 07:30:58;;;;;;;1.10;0.90;;;23.30;99.90;;;;;;5138855;27;20272;-82
2022/06/03 07:33:41;;;;;;;1.10;1.10;;;23.20;99.90;;;;;;5137547;27;20235;-81
2022/06/03 07:36:15;;;;;;;1.55;1.23;;;23.30;99.90;;;;;;5137888;27;20188;-81
2022/06/03 07:38:49;;;;;;;1.20;1.10;;;23.60;99.90;;;;;;5137524;27;20192;-81
2022/06/03 07:41:20;;;;;;;1.45;1.35;;;24.00;99.90;;;;;;5137434;27;20188;-81
2022/06/03 07:43:53;;;;;;;3.17;1.60;;;24.50;99.90;;;;;;5137619;27;20220;-81
2022/06/03 07:46:25;;;;;;;1.50;1.40;;;25.40;99.90;;;;;;5137679;27;20194;-81
2022/06/03 07:48:52;;;;;;;1.10;1.00;;;25.50;99.90;;;;;;5137565;27;20180;-81
2022/06/03 07:51:25;;;;;;;3.95;1.90;;;25.30;99.90;;;;;;5137092;27;20311;-82
2022/06/03 07:53:58;;;;;;;1.10;1.10;;;25.20;99.90;;;;;;5137393;27;20223;-82
2022/06/03 07:56:28;;;;;;;1.00;1.00;;;25.10;99.90;;;;;;5137430;27;20195;-81
2022/06/03 07:58:57;;;;;;;1.67;1.58;;;25.10;99.90;;;;;;5137324;27;20196;-81
2022/06/03 08:01:28;;;;;;;1.65;1.45;;;25.50;99.90;;;;;;5137279;27;20204;-81
2022/06/03 08:03:55;;;;;;;1.13;1.05;;;25.70;99.90;;;;;;5136491;27;20227;-81
2022/06/03 08:06:30;;;;;;;1.58;1.45;;;26.00;99.90;;;;;;5137197;27;20214;-81
2022/06/03 08:11:44;;;;;;;1.50;1.40;;;26.70;99.90;;;;;;5136882;27;20181;-81
2022/06/03 08:14:11;;;;;;;1.33;1.17;;;26.80;99.90;;;;;;5137009;27;20223;-81
2022/06/03 08:16:41;;;;;;;1.20;1.10;;;27.00;99.90;;;;;;5136721;27;20195;-81
2022/06/03 08:19:12;;;;;;;2.40;1.63;;;27.10;99.90;;;;;;5137115;27;20194;-83
2022/06/03 08:21:42;;;;;;;1.40;1.30;;;27.30;99.90;;;;;;5137284;27;20553;-86
2022/06/03 08:24:11;;;;;;;1.50;1.40;;;27.20;99.90;;;;;;5137210;27;20228;-85
2022/06/03 08:26:42;;;;;;;1.20;1.20;;;27.10;99.90;;;;;;5136831;27;20207;-85
2022/06/03 08:29:14;;;;;;;1.35;1.25;;;27.10;99.90;;;;;;5136865;27;20185;-85
2022/06/03 08:31:44;;;;;;;1.20;1.10;;;27.30;99.90;;;;;;5136750;27;20185;-86
2022/06/03 08:34:20;;;;;;;1.50;1.40;;;27.20;99.90;;;;;;5136386;27;20240;-85
2022/06/03 08:36:47;;;;;;;1.35;1.30;;;27.30;99.90;;;;;;5139724;27;20196;-84
2022/06/03 08:39:20;;;;;;;1.48;1.38;;;27.70;99.90;;;;;;5148192;27;20206;-84
2022/06/03 08:42:17;;;;;;;1.58;1.17;;;27.80;99.90;;;;;;5159023;27;20192;-84
2022/06/03 08:44:58;;;;;;;2.35;1.52;;;27.90;99.20;;;;;;5142343;27;20210;-85
2022/06/03 08:47:37;;;;;;;1.50;1.40;;;27.50;99.00;;;;;;5136680;27;20188;-85
2022/06/03 08:50:08;;;;;;;1.48;1.38;;;27.30;99.90;;;;;;5136336;27;20257;-85
2022/06/03 08:52:47;;;;;;;1.50;1.40;;;27.50;99.90;;;;;;5136285;27;20220;-85
2022/06/03 08:55:28;;;;;;;1.42;1.20;;;27.70;99.50;;;;;;5136330;27;20184;-85
2022/06/03 08:57:59;;;;;;;1.27;1.17;;;28.00;99.70;;;;;;5136249;27;20196;-85
2022/06/03 09:00:31;;;;;;;4.72;2.17;;;28.20;97.40;;;;;;5135883;27;20191;-86
2022/06/03 09:03:03;;;;;;;1.00;1.00;;;28.10;97.90;;;;;;5136126;27;20225;-85
2022/06/03 09:05:34;;;;;;;1.00;1.00;;;28.20;96.60;;;;;;5136085;27;20188;-84
2022/06/03 09:08:06;;;;;;;1.30;1.20;;;28.00;97.00;;;;;;5135720;27;20189;-82
2022/06/03 09:10:40;;;;;;;1.33;1.23;;;27.90;96.10;;;;;;5135934;27;20214;-84
2022/06/03 09:13:13;;;;;;;1.10;1.00;;;27.70;96.70;;;;;;5135844;27;20223;-78
2022/06/03 09:15:44;;;;;;;1.45;1.35;;;27.60;97.30;;;;;;5134976;27;20182;-79
2022/06/03 09:18:17;;;;;;;6.30;1.40;;;27.40;97.40;;;;;;5135794;27;20186;-78
2022/06/03 09:20:47;;;;;;;2.17;1.30;;;27.30;98.20;;;;;;5135756;27;20234;-79
2022/06/03 09:23:18;;;;;;;1.80;1.00;;;27.30;97.30;;;;;;5136290;27;20243;-78
2022/06/03 09:25:49;;;;;;;1.20;1.17;;;27.40;97.20;;;;;;5135656;27;20189;-77
2022/06/03 09:28:20;;;;;;;1.15;1.15;;;27.30;96.90;;;;;;5135560;27;20200;-79
2022/06/03 09:30:47;;;;;;;1.30;1.20;;;27.30;97.10;;;;;;5135439;27;20211;-79
2022/06/03 09:33:19;;;;;;;2.25;1.10;;;27.40;96.70;;;;;;5134922;27;20725;-78
2022/06/03 09:35:49;;;;;;;1.40;1.30;;;27.40;96.30;;;;;;5135166;27;20630;-78
2022/06/03 09:38:19;;;;;;;1.80;1.38;;;27.40;96.50;;;;;;5135362;27;20192;-77
2022/06/03 09:40:47;;;;;;;1.60;1.50;;;27.50;95.90;;;;;;5135356;27;20180;-79
2022/06/03 09:43:18;;;;;;;1.00;1.00;;;27.40;96.90;;;;;;5134788;27;20228;-78
2022/06/03 09:45:46;;;;;;;1.92;1.83;;;27.30;96.60;;;;;;5134953;27;20204;-78
2022/06/03 09:48:17;;;;;;;1.42;1.33;;;27.50;96.70;;;;;;5135212;27;20204;-79
2022/06/03 09:50:47;;;;;;;2.63;1.88;;;27.50;96.00;;;;;;5135171;27;20208;-77
2022/06/03 09:53:17;;;;;;;1.20;1.10;;;27.40;96.10;;;;;;5134757;27;20703;-77
2022/06/03 09:55:51;;;;;;;1.52;1.17;;;27.40;95.00;;;;;;5135132;27;20195;-78
2022/06/03 09:58:22;;;;;;;1.52;1.10;;;27.40;94.70;;;;;;5135060;27;20206;-79
2022/06/03 10:00:51;;;;;;;1.38;1.27;;;27.20;95.10;;;;;;5135025;27;20181;-82
2022/06/03 10:03:20;;;;;;;1.35;1.13;;;27.40;96.00;;;;;;5134852;27;20227;-79
2022/06/03 10:05:50;;;;;;;1.02;0.98;;;27.40;95.30;;;;;;5135744;27;20194;-79
2022/06/03 10:08:19;;;;;;;0.80;0.80;;;27.30;94.50;;;;;;5134628;27;20635;-78
2022/06/03 10:13:33;;;;;;;1.17;1.08;;;27.10;95.00;;;;;;5134629;27;20261;-78
2022/06/03 10:16:01;;;;;;;0.93;0.93;;;27.20;95.40;;;;;;5135432;27;20196;-79
2022/06/03 10:18:34;;;;;;;1.08;1.00;;;27.30;95.40;;;;;;5134672;27;20203;-77
2022/06/03 10:21:28;;;;;;;1.85;1.42;;;27.30;95.20;;;;;;5134395;27;20185;-78
2022/06/03 10:23:57;;;;;;;1.27;1.10;;;27.40;94.50;;;;;;5134618;27;20288;-80
2022/06/03 10:26:27;;;;;;;1.80;1.40;;;27.40;94.40;;;;;;5134327;27;20188;-79
2022/06/03 10:28:57;;;;;;;1.45;1.00;;;27.10;94.80;;;;;;5134605;27;20217;-79
2022/06/03 10:31:30;;;;;;;1.23;1.13;;;27.00;95.10;;;;;;5134502;27;20224;-78
2022/06/03 10:34:01;;;;;;;1.40;1.30;;;27.00;95.30;;;;;;5133930;27;20728;-79
2022/06/03 10:36:32;;;;;;;1.13;1.02;;;27.10;96.10;;;;;;5134551;27;20181;-80
2022/06/03 10:38:59;;;;;;;1.85;1.25;;;27.10;95.50;;;;;;5134437;27;20173;-77
2022/06/03 10:41:33;;;;;;;1.17;0.93;;;27.20;95.70;;;;;;5134436;27;20191;-77
2022/06/03 10:44:00;;;;;;;1.10;1.00;;;27.40;94.50;;;;;;5134395;27;20261;-79
2022/06/03 10:46:27;;;;;;;1.48;1.38;;;27.40;94.80;;;;;;5135240;27;20312;-79
2022/06/03 10:48:54;;;;;;;1.35;1.10;;;27.40;93.80;;;;;;5134374;27;20611;-78
2022/06/03 11:01:06;;;;;;;1.30;1.20;;;27.50;94.40;;;;;;5134312;27;20242;-78
2022/06/03 11:02:32;;;;;;;1.33;1.27;;;27.30;92.50;;;;;;5133945;27;20222;-78
2022/06/03 11:05:11;;;;;;;1.45;1.35;;;27.20;92.60;;;;;;5133891;27;20211;-78
2022/06/03 11:07:40;;;;;;;1.58;1.48;;;27.20;93.00;;;;;;5134789;27;20184;-78
2022/06/03 11:10:09;;;;;;;1.30;1.10;;;27.10;93.90;;;;;;5134073;27;20287;-78
2022/06/03 11:12:36;;;;;;;0.82;0.82;;;26.90;93.20;;;;;;5134133;27;20220;-78
2022/06/03 11:15:25;;;;;;;1.10;0.98;;;26.70;93.70;;;;;;5134001;27;20644;-78
2022/06/03 11:17:52;;;;;;;1.23;1.00;;;26.50;93.00;;;;;;5133775;27;20597;-78
2022/06/03 11:20:34;;;;;;;0.88;0.80;;;26.20;93.60;;;;;;5134078;27;20211;-79
2022/06/03 11:23:03;;;;;;;0.90;0.90;;;26.00;92.80;;;;;;5133979;27;20228;-80
2022/06/03 11:25:32;;;;;;;0.82;0.80;;;25.90;95.00;;;;;;5133703;27;20727;-77
2022/06/03 11:28:02;;;;;;;0.98;0.98;;;25.80;96.50;;;;;;5134010;27;20199;-77
2022/06/03 11:30:34;;;;;;;1.00;0.98;;;25.70;99.90;;;;;;5133790;27;20556;-77
2022/06/03 11:33:04;;;;;;;0.80;0.80;;;25.60;99.90;;;;;;5133953;27;20280;-78
2022/06/03 11:35:38;;;;;;;0.88;0.88;;;25.50;97.30;;;;;;5133670;27;20662;-78
2022/06/03 11:38:09;;;;;;;2.05;0.88;;;25.50;98.00;;;;;;5135666;27;20179;-78
2022/06/03 11:40:40;;;;;;;1.08;1.00;;;25.60;97.90;;;;;;5137459;27;20188;-78
2022/06/03 11:43:12;;;;;;;1.13;1.02;;;25.70;97.70;;;;;;5137667;27;20224;-79
2022/06/03 11:45:42;;;;;;;0.90;0.90;;;25.90;97.00;;;;;;5137625;27;20237;-79
2022/06/03 11:48:17;;;;;;;0.70;0.70;;;26.00;96.00;;;;;;5137207;27;20196;-79
2022/06/03 11:50:44;;;;;;;1.15;0.90;;;26.20;95.40;;;;;;5137490;27;20215;-78
2022/06/03 11:53:13;;;;;;;1.30;1.20;;;26.20;94.70;;;;;;5137409;27;20230;-76
2022/06/03 11:55:40;;;;;;;2.25;0.90;;;26.20;94.90;;;;;;5137425;27;20225;-79
2022/06/03 11:58:16;;;;;;;1.02;0.93;;;26.20;94.90;;;;;;5137367;27;20215;-77
2022/06/03 12:00:50;;;;;;;1.42;1.02;;;26.10;95.60;;;;;;5137344;27;20183;-79
2022/06/03 12:03:32;;;;;;;0.82;0.82;;;26.00;95.00;;;;;;5137220;27;20226;-78
2022/06/03 12:06:03;;;;;;;1.00;0.90;;;26.00;95.20;;;;;;5136976;27;20639;-78
2022/06/03 12:08:42;;;;;;;1.13;1.00;;;25.90;95.50;;;;;;5137212;27;20184;-78
2022/06/03 12:13:14;;;;;;;1.10;1.10;;;26.00;94.70;;;;;;5137096;27;20208;-78
2022/06/03 12:14:25;;;;;;;1.13;1.02;;;26.00;94.50;;;;;;5136452;27;20287;-77
2022/06/03 12:16:54;;;;;;;1.00;0.90;;;25.90;94.50;;;;;;5137109;27;20177;-80
2022/06/03 12:19:39;;;;;;;1.35;1.02;;;26.00;95.20;;;;;;5137021;27;20223;-78
2022/06/03 12:22:20;;;;;;;1.48;1.15;;;26.00;95.10;;;;;;5136598;27;20184;-79
2022/06/03 12:24:52;;;;;;;1.27;1.17;;;25.90;95.20;;;;;;5136547;27;20643;-78
2022/06/03 12:27:30;;;;;;;1.08;1.08;;;25.90;94.60;;;;;;5136846;27;20202;-78
2022/06/03 12:30:30;;;;;;;1.70;0.82;;;25.70;94.70;;;;;;5136792;27;20184;-79
2022/06/03 12:33:00;;;;;;;1.77;1.10;;;25.60;95.40;;;;;;5136462;27;20302;-79
2022/06/03 12:35:53;;;;;;;1.38;1.33;;;25.60;95.70;;;;;;5136235;27;20726;-79
2022/06/03 12:38:43;;;;;;;1.83;1.25;;;25.40;95.80;;;;;;5136645;27;20223;-85
2022/06/03 12:41:12;;;;;;;5.20;1.05;;;25.30;96.40;;;;;;5136575;27;20180;-80
2022/06/03 12:44:00;;;;;;;1.70;1.10;;;25.20;97.10;;;;;;5136378;27;20231;-78
2022/06/03 12:46:41;;;;;;;1.27;1.17;;;25.20;98.00;;;;;;5136424;27;20282;-78
2022/06/03 12:49:39;;;;;;;0.93;0.90;;;25.10;99.90;;;;;;5136160;27;20288;-78
2022/06/03 12:52:12;;;;;;;1.02;1.02;;;24.90;99.90;;;;;;5135833;27;20266;-78
2022/06/03 12:54:48;;;;;;;1.10;1.00;;;24.70;99.90;;;;;;5136333;27;20184;-78
2022/06/03 12:57:23;;;;;;;1.15;1.05;;;24.70;99.90;;;;;;5135946;27;20562;-78
2022/06/03 12:59:55;;;;;;;1.20;1.10;;;24.70;99.90;;;;;;5135901;27;20635;-78
2022/06/03 13:02:25;;;;;;;2.03;1.30;;;24.70;99.90;;;;;;5136119;27;20219;-78
2022/06/03 13:05:26;;;;;;;1.20;1.20;;;24.70;99.90;;;;;;5136406;27;20223;-78
2022/06/03 13:08:01;;;;;;;0.93;0.93;;;24.80;99.90;;;;;;5136080;27;20184;-78
2022/06/03 13:11:06;;;;;;;1.33;1.10;;;24.90;99.90;;;;;;5136000;27;20194;-78
2022/06/03 13:13:49;;;;;;;1.45;1.00;;;25.00;99.90;;;;;;5135898;27;20216;-78
2022/06/03 13:16:23;;;;;;;1.10;1.00;;;25.00;99.90;;;;;;5135934;27;20189;-78
2022/06/03 13:18:52;;;;;;;1.35;1.10;;;25.00;99.90;;;;;;5135797;27;20188;-78
2022/06/03 13:21:23;;;;;;;1.27;1.10;;;25.00;99.90;;;;;;5135807;27;20608;-78
2022/06/03 13:24:21;;;;;;;1.08;1.08;;;24.90;99.90;;;;;;5135654;27;20224;-78
2022/06/03 13:27:08;;;;;;;1.35;1.25;;;24.80;99.90;;;;;;5135732;27;20234;-78
2022/06/03 13:30:11;;;;;;;2.25;2.15;;;24.70;99.90;;;;;;5135381;27;20173;-78
2022/06/03 13:33:00;;;;;;;1.67;1.58;;;24.70;99.90;;;;;;5135412;27;20273;-78
2022/06/03 13:35:29;;;;;;;2.25;1.58;;;24.60;99.90;;;;;;5126813;27;20706;-78
2022/06/03 13:38:25;;;;;;;1.58;1.48;;;24.60;99.90;;;;;;5135445;27;20203;-78
2022/06/03 13:44:05;;;;;;;1.38;1.27;;;24.40;99.90;;;;;;5135098;27;20694;-78
2022/06/03 13:46:33;;;;;;;2.08;1.98;;;24.30;99.90;;;;;;5134986;27;20196;-78
2022/06/03 13:49:02;;;;;;;5.00;1.95;;;24.30;99.90;;;;;;5134913;27;20714;-78
2022/06/03 13:51:47;;;;;;;2.33;2.22;;;24.30;99.90;;;;;;5134737;27;20622;-78
2022/06/03 13:54:21;;;;;;;1.52;1.25;;;24.20;99.90;;;;;;5135119;27;20220;-79
2022/06/03 13:57:00;;;;;;;2.13;2.03;;;24.10;99.90;;;;;;5135938;27;20183;-79
2022/06/03 13:59:34;;;;;;;4.10;2.40;;;24.00;99.90;;;;;;5134710;27;20643;-78
2022/06/03 14:02:02;;;;;;;3.03;2.08;;;23.90;99.90;;;;;;5134323;27;20180;-79
2022/06/03 14:04:31;;;;;;;4.50;2.17;;;23.90;99.90;;;;;;5134920;27;20200;-80
2022/06/03 14:07:02;;;;;;;4.20;1.92;;;23.90;99.90;;;;;;5134880;27;20212;-78
2022/06/03 14:09:33;;;;;;;2.22;2.03;;;23.90;99.90;;;;;;5134910;27;20191;-78
2022/06/03 14:12:20;;;;;;;2.30;1.58;;;23.90;99.90;;;;;;5134816;27;20208;-78
2022/06/03 14:14:57;;;;;;;1.70;1.60;;;23.90;99.90;;;;;;5134864;27;20188;-78
2022/06/03 14:17:31;;;;;;;1.90;1.73;;;23.80;99.90;;;;;;5134485;27;20661;-78
2022/06/03 14:20:03;;;;;;;2.17;2.00;;;23.80;99.90;;;;;;5134797;27;20184;-78
2022/06/03 14:22:40;;;;;;;2.00;1.85;;;23.70;99.90;;;;;;5134806;27;20222;-78
2022/06/03 14:25:15;;;;;;;2.67;2.33;;;23.60;99.90;;;;;;5134710;27;20270;-78
2022/06/03 14:27:53;;;;;;;3.30;2.08;;;23.60;99.90;;;;;;5134709;27;20188;-84
2022/06/03 14:30:24;;;;;;;2.38;2.15;;;23.60;99.90;;;;;;5134640;27;20280;-78
2022/06/03 14:32:57;;;;;;;2.15;1.95;;;23.60;99.90;;;;;;5134449;27;20223;-79
2022/06/03 14:35:28;;;;;;;2.43;1.77;;;23.60;99.90;;;;;;5134396;27;20236;-79